sensor_id;sensor_type;location;lat;lon;timestamp;P1;durP1;ratioP1;P2;durP2;ratioP2
13975;SDS011;7062;49.792;9.946;2022-10-31T00:02:20;13.20;;;9.43;;
13975;SDS011;7062;49.792;9.946;2022-10-31T00:04:46;20.27;;;10.23;;
13975;SDS011;7062;49.792;9.946;2022-10-31T00:07:12;15.07;;;8.37;;
13975;SDS011;7062;49.792;9.946;2022-10-31T00:09:37;27.27;;;9.23;;
13975;SDS011;7062;49.792;9.946;2022-10-31T00:12:03;29.80;;;10.03;;
13975;SDS011;7062;49.792;9.946;2022-10-31T00:14:28;20.83;;;8.43;;
13975;SDS011;7062;49.792;9.946;2022-10-31T00:16:54;35.10;;;9.00;;
13975;SDS011;7062;49.792;9.946;2022-10-31T00:19:20;51.47;;;9.70;;
13975;SDS011;7062;49.792;9.946;2022-10-31T00:21:45;24.50;;;10.27;;
13975;SDS011;7062;49.792;9.946;2022-10-31T00:24:11;16.90;;;8.23;;
13975;SDS011;7062;49.792;9.946;2022-10-31T00:26:36;25.93;;;9.33;;
13975;SDS011;7062;49.792;9.946;2022-10-31T00:29:02;38.10;;;8.83;;
13975;SDS011;7062;49.792;9.946;2022-10-31T00:31:28;40.07;;;8.87;;
13975;SDS011;7062;49.792;9.946;2022-10-31T00:33:54;23.20;;;8.77;;
13975;SDS011;7062;49.792;9.946;2022-10-31T00:36:20;23.30;;;9.00;;
13975;SDS011;7062;49.792;9.946;2022-10-31T00:38:46;26.13;;;8.03;;
13975;SDS011;7062;49.792;9.946;2022-10-31T00:41:13;18.70;;;7.70;;
13975;SDS011;7062;49.792;9.946;2022-10-31T00:43:41;19.87;;;7.83;;
13975;SDS011;7062;49.792;9.946;2022-10-31T00:46:08;19.37;;;7.63;;
13975;SDS011;7062;49.792;9.946;2022-10-31T00:48:34;9.83;;;7.00;;
13975;SDS011;7062;49.792;9.946;2022-10-31T00:51:00;14.83;;;7.37;;
13975;SDS011;7062;49.792;9.946;2022-10-31T00:53:25;17.70;;;6.73;;
13975;SDS011;7062;49.792;9.946;2022-10-31T00:55:51;9.27;;;6.63;;
13975;SDS011;7062;49.792;9.946;2022-10-31T00:58:17;10.37;;;5.57;;
13975;SDS011;7062;49.792;9.946;2022-10-31T01:00:43;28.80;;;9.03;;
13975;SDS011;7062;49.792;9.946;2022-10-31T01:03:08;7.90;;;6.60;;
13975;SDS011;7062;49.792;9.946;2022-10-31T01:05:34;24.77;;;7.00;;
13975;SDS011;7062;49.792;9.946;2022-10-31T01:08:00;6.80;;;6.10;;
13975;SDS011;7062;49.792;9.946;2022-10-31T01:10:26;7.47;;;6.77;;
13975;SDS011;7062;49.792;9.946;2022-10-31T01:12:51;16.53;;;6.80;;
13975;SDS011;7062;49.792;9.946;2022-10-31T01:15:19;7.03;;;6.33;;
13975;SDS011;7062;49.792;9.946;2022-10-31T01:17:46;14.80;;;6.10;;
13975;SDS011;7062;49.792;9.946;2022-10-31T01:20:12;29.23;;;6.50;;
13975;SDS011;7062;49.792;9.946;2022-10-31T01:22:39;25.00;;;7.03;;
13975;SDS011;7062;49.792;9.946;2022-10-31T01:25:05;11.37;;;5.87;;
13975;SDS011;7062;49.792;9.946;2022-10-31T01:27:32;20.17;;;7.00;;
13975;SDS011;7062;49.792;9.946;2022-10-31T01:29:58;20.57;;;6.47;;
13975;SDS011;7062;49.792;9.946;2022-10-31T01:32:24;13.33;;;6.43;;
13975;SDS011;7062;49.792;9.946;2022-10-31T01:34:49;15.77;;;7.47;;
13975;SDS011;7062;49.792;9.946;2022-10-31T01:37:15;30.27;;;7.27;;
13975;SDS011;7062;49.792;9.946;2022-10-31T01:39:41;26.00;;;8.57;;
13975;SDS011;7062;49.792;9.946;2022-10-31T01:42:07;20.40;;;9.40;;
13975;SDS011;7062;49.792;9.946;2022-10-31T01:47:13;64.27;;;12.47;;
13975;SDS011;7062;49.792;9.946;2022-10-31T01:49:46;31.73;;;10.97;;
13975;SDS011;7062;49.792;9.946;2022-10-31T01:52:24;28.10;;;10.67;;
13975;SDS011;7062;49.792;9.946;2022-10-31T01:54:57;22.80;;;8.33;;
13975;SDS011;7062;49.792;9.946;2022-10-31T01:57:26;36.77;;;8.33;;
13975;SDS011;7062;49.792;9.946;2022-10-31T01:59:55;18.03;;;6.80;;
13975;SDS011;7062;49.792;9.946;2022-10-31T02:02:24;19.80;;;8.10;;
13975;SDS011;7062;49.792;9.946;2022-10-31T02:04:52;12.53;;;7.97;;
13975;SDS011;7062;49.792;9.946;2022-10-31T02:07:30;10.60;;;7.07;;
13975;SDS011;7062;49.792;9.946;2022-10-31T02:10:27;11.00;;;7.67;;
13975;SDS011;7062;49.792;9.946;2022-10-31T02:12:56;11.23;;;6.97;;
13975;SDS011;7062;49.792;9.946;2022-10-31T02:15:24;16.23;;;6.93;;
13975;SDS011;7062;49.792;9.946;2022-10-31T02:17:50;22.53;;;7.00;;
13975;SDS011;7062;49.792;9.946;2022-10-31T02:20:17;19.87;;;6.80;;
13975;SDS011;7062;49.792;9.946;2022-10-31T02:28:39;15.57;;;5.77;;
13975;SDS011;7062;49.792;9.946;2022-10-31T02:31:34;28.20;;;8.10;;
13975;SDS011;7062;49.792;9.946;2022-10-31T02:34:08;12.50;;;5.13;;
13975;SDS011;7062;49.792;9.946;2022-10-31T02:37:08;23.40;;;5.73;;
13975;SDS011;7062;49.792;9.946;2022-10-31T02:39:36;12.30;;;5.97;;
13975;SDS011;7062;49.792;9.946;2022-10-31T02:45:10;23.13;;;5.80;;
13975;SDS011;7062;49.792;9.946;2022-10-31T02:48:02;24.77;;;5.77;;
13975;SDS011;7062;49.792;9.946;2022-10-31T02:50:35;16.10;;;5.47;;
13975;SDS011;7062;49.792;9.946;2022-10-31T02:53:05;7.57;;;5.23;;
13975;SDS011;7062;49.792;9.946;2022-10-31T03:00:59;8.30;;;5.60;;
13975;SDS011;7062;49.792;9.946;2022-10-31T03:06:49;18.77;;;6.60;;
13975;SDS011;7062;49.792;9.946;2022-10-31T03:18:13;14.13;;;5.60;;
13975;SDS011;7062;49.792;9.946;2022-10-31T03:20:56;5.23;;;4.80;;
13975;SDS011;7062;49.792;9.946;2022-10-31T03:23:23;6.33;;;5.37;;
13975;SDS011;7062;49.792;9.946;2022-10-31T03:25:50;9.27;;;4.60;;
13975;SDS011;7062;49.792;9.946;2022-10-31T03:28:18;5.67;;;4.63;;
13975;SDS011;7062;49.792;9.946;2022-10-31T03:30:50;6.97;;;4.03;;
13975;SDS011;7062;49.792;9.946;2022-10-31T03:33:17;23.60;;;5.37;;
13975;SDS011;7062;49.792;9.946;2022-10-31T03:35:48;13.30;;;5.47;;
13975;SDS011;7062;49.792;9.946;2022-10-31T03:38:17;11.43;;;5.30;;
13975;SDS011;7062;49.792;9.946;2022-10-31T03:40:45;10.77;;;4.23;;
13975;SDS011;7062;49.792;9.946;2022-10-31T03:43:17;10.43;;;4.53;;
13975;SDS011;7062;49.792;9.946;2022-10-31T03:45:48;11.77;;;4.07;;
13975;SDS011;7062;49.792;9.946;2022-10-31T03:48:14;24.37;;;5.73;;
13975;SDS011;7062;49.792;9.946;2022-10-31T03:50:49;10.63;;;4.10;;
13975;SDS011;7062;49.792;9.946;2022-10-31T03:53:24;9.13;;;4.67;;
13975;SDS011;7062;49.792;9.946;2022-10-31T03:56:19;13.23;;;4.83;;
13975;SDS011;7062;49.792;9.946;2022-10-31T03:59:08;7.03;;;4.03;;
13975;SDS011;7062;49.792;9.946;2022-10-31T04:01:45;7.07;;;4.37;;
13975;SDS011;7062;49.792;9.946;2022-10-31T04:04:14;6.33;;;4.70;;
13975;SDS011;7062;49.792;9.946;2022-10-31T04:06:40;7.70;;;4.60;;
13975;SDS011;7062;49.792;9.946;2022-10-31T04:09:08;5.07;;;4.13;;
13975;SDS011;7062;49.792;9.946;2022-10-31T04:11:40;7.37;;;4.50;;
13975;SDS011;7062;49.792;9.946;2022-10-31T04:14:10;11.93;;;4.70;;
13975;SDS011;7062;49.792;9.946;2022-10-31T04:16:38;6.03;;;3.97;;
13975;SDS011;7062;49.792;9.946;2022-10-31T04:19:06;6.87;;;4.33;;
13975;SDS011;7062;49.792;9.946;2022-10-31T04:21:32;4.67;;;4.07;;
13975;SDS011;7062;49.792;9.946;2022-10-31T04:23:57;6.27;;;4.27;;
13975;SDS011;7062;49.792;9.946;2022-10-31T04:26:23;8.23;;;4.20;;
13975;SDS011;7062;49.792;9.946;2022-10-31T04:28:49;15.83;;;4.50;;
13975;SDS011;7062;49.792;9.946;2022-10-31T04:31:15;4.53;;;4.13;;
13975;SDS011;7062;49.792;9.946;2022-10-31T04:33:41;5.20;;;4.70;;
13975;SDS011;7062;49.792;9.946;2022-10-31T04:36:06;5.37;;;4.90;;
13975;SDS011;7062;49.792;9.946;2022-10-31T04:38:32;9.97;;;4.07;;
13975;SDS011;7062;49.792;9.946;2022-10-31T04:40:58;8.93;;;4.07;;
13975;SDS011;7062;49.792;9.946;2022-10-31T04:43:24;6.20;;;3.77;;
13975;SDS011;7062;49.792;9.946;2022-10-31T04:45:49;7.07;;;4.30;;
13975;SDS011;7062;49.792;9.946;2022-10-31T04:48:15;7.77;;;4.97;;
13975;SDS011;7062;49.792;9.946;2022-10-31T04:50:41;6.00;;;4.63;;
13975;SDS011;7062;49.792;9.946;2022-10-31T04:53:06;7.13;;;6.47;;
13975;SDS011;7062;49.792;9.946;2022-10-31T04:55:32;15.83;;;4.70;;
13975;SDS011;7062;49.792;9.946;2022-10-31T04:57:58;19.47;;;4.33;;
13975;SDS011;7062;49.792;9.946;2022-10-31T05:00:23;18.90;;;4.70;;
13975;SDS011;7062;49.792;9.946;2022-10-31T05:02:54;17.70;;;5.13;;
13975;SDS011;7062;49.792;9.946;2022-10-31T05:05:22;17.93;;;4.67;;
13975;SDS011;7062;49.792;9.946;2022-10-31T05:07:50;16.10;;;5.23;;
13975;SDS011;7062;49.792;9.946;2022-10-31T05:10:18;15.60;;;5.50;;
13975;SDS011;7062;49.792;9.946;2022-10-31T05:12:49;17.33;;;5.77;;
13975;SDS011;7062;49.792;9.946;2022-10-31T05:15:16;10.40;;;6.53;;
13975;SDS011;7062;49.792;9.946;2022-10-31T05:17:43;10.17;;;6.10;;
13975;SDS011;7062;49.792;9.946;2022-10-31T05:20:09;11.33;;;6.23;;
13975;SDS011;7062;49.792;9.946;2022-10-31T05:22:36;11.80;;;6.43;;
13975;SDS011;7062;49.792;9.946;2022-10-31T05:25:02;17.90;;;6.87;;
13975;SDS011;7062;49.792;9.946;2022-10-31T05:27:28;23.53;;;6.87;;
13975;SDS011;7062;49.792;9.946;2022-10-31T05:29:54;18.47;;;7.27;;
13975;SDS011;7062;49.792;9.946;2022-10-31T05:32:19;15.37;;;6.43;;
13975;SDS011;7062;49.792;9.946;2022-10-31T05:34:45;16.17;;;6.97;;
13975;SDS011;7062;49.792;9.946;2022-10-31T05:37:10;13.03;;;7.57;;
13975;SDS011;7062;49.792;9.946;2022-10-31T05:39:36;24.67;;;6.77;;
13975;SDS011;7062;49.792;9.946;2022-10-31T05:42:02;11.33;;;6.83;;
13975;SDS011;7062;49.792;9.946;2022-10-31T05:44:28;12.77;;;6.93;;
13975;SDS011;7062;49.792;9.946;2022-10-31T05:46:53;11.20;;;6.90;;
13975;SDS011;7062;49.792;9.946;2022-10-31T05:49:19;12.10;;;6.00;;
13975;SDS011;7062;49.792;9.946;2022-10-31T05:51:45;12.87;;;5.70;;
13975;SDS011;7062;49.792;9.946;2022-10-31T05:54:11;15.67;;;6.03;;
13975;SDS011;7062;49.792;9.946;2022-10-31T05:56:36;7.13;;;5.53;;
13975;SDS011;7062;49.792;9.946;2022-10-31T05:59:02;14.43;;;5.60;;
13975;SDS011;7062;49.792;9.946;2022-10-31T06:01:27;11.90;;;6.30;;
13975;SDS011;7062;49.792;9.946;2022-10-31T06:03:53;13.27;;;6.73;;
13975;SDS011;7062;49.792;9.946;2022-10-31T06:06:19;9.67;;;7.40;;
13975;SDS011;7062;49.792;9.946;2022-10-31T06:08:44;10.93;;;6.17;;
13975;SDS011;7062;49.792;9.946;2022-10-31T06:11:10;13.70;;;7.70;;
13975;SDS011;7062;49.792;9.946;2022-10-31T06:13:35;10.47;;;7.63;;
13975;SDS011;7062;49.792;9.946;2022-10-31T06:16:01;12.83;;;7.13;;
13975;SDS011;7062;49.792;9.946;2022-10-31T06:18:27;7.70;;;6.80;;
13975;SDS011;7062;49.792;9.946;2022-10-31T06:20:52;7.87;;;6.70;;
13975;SDS011;7062;49.792;9.946;2022-10-31T06:23:18;10.50;;;7.77;;
13975;SDS011;7062;49.792;9.946;2022-10-31T06:25:47;9.67;;;8.30;;
13975;SDS011;7062;49.792;9.946;2022-10-31T06:28:14;16.03;;;8.03;;
13975;SDS011;7062;49.792;9.946;2022-10-31T06:30:39;12.37;;;8.13;;
13975;SDS011;7062;49.792;9.946;2022-10-31T06:33:05;11.90;;;8.23;;
13975;SDS011;7062;49.792;9.946;2022-10-31T06:35:31;10.37;;;8.60;;
13975;SDS011;7062;49.792;9.946;2022-10-31T06:37:57;9.13;;;7.27;;
13975;SDS011;7062;49.792;9.946;2022-10-31T06:40:23;8.80;;;7.43;;
13975;SDS011;7062;49.792;9.946;2022-10-31T06:42:56;11.77;;;5.73;;
13975;SDS011;7062;49.792;9.946;2022-10-31T06:45:25;10.50;;;7.33;;
13975;SDS011;7062;49.792;9.946;2022-10-31T06:47:52;10.63;;;6.90;;
13975;SDS011;7062;49.792;9.946;2022-10-31T06:50:18;8.10;;;7.20;;
13975;SDS011;7062;49.792;9.946;2022-10-31T06:52:49;8.13;;;7.33;;
13975;SDS011;7062;49.792;9.946;2022-10-31T06:55:17;8.40;;;6.40;;
13975;SDS011;7062;49.792;9.946;2022-10-31T06:57:49;8.17;;;7.23;;
13975;SDS011;7062;49.792;9.946;2022-10-31T07:00:16;8.93;;;6.00;;
13975;SDS011;7062;49.792;9.946;2022-10-31T07:02:42;7.87;;;6.53;;
13975;SDS011;7062;49.792;9.946;2022-10-31T07:05:07;12.93;;;8.13;;
13975;SDS011;7062;49.792;9.946;2022-10-31T07:07:33;8.80;;;7.77;;
13975;SDS011;7062;49.792;9.946;2022-10-31T07:09:58;8.97;;;8.07;;
13975;SDS011;7062;49.792;9.946;2022-10-31T07:12:24;12.17;;;7.40;;
13975;SDS011;7062;49.792;9.946;2022-10-31T07:14:49;8.87;;;6.73;;
13975;SDS011;7062;49.792;9.946;2022-10-31T07:17:15;6.43;;;5.77;;
13975;SDS011;7062;49.792;9.946;2022-10-31T07:19:41;7.03;;;6.37;;
13975;SDS011;7062;49.792;9.946;2022-10-31T07:22:07;8.20;;;6.77;;
13975;SDS011;7062;49.792;9.946;2022-10-31T07:24:32;8.43;;;6.60;;
13975;SDS011;7062;49.792;9.946;2022-10-31T07:26:58;6.03;;;5.43;;
13975;SDS011;7062;49.792;9.946;2022-10-31T07:29:23;5.87;;;5.33;;
13975;SDS011;7062;49.792;9.946;2022-10-31T07:31:49;7.37;;;5.50;;
13975;SDS011;7062;49.792;9.946;2022-10-31T07:34:15;6.10;;;5.53;;
13975;SDS011;7062;49.792;9.946;2022-10-31T07:36:40;7.50;;;6.43;;
13975;SDS011;7062;49.792;9.946;2022-10-31T07:39:06;6.77;;;5.07;;
13975;SDS011;7062;49.792;9.946;2022-10-31T07:41:32;8.87;;;5.97;;
13975;SDS011;7062;49.792;9.946;2022-10-31T07:43:57;8.17;;;5.87;;
13975;SDS011;7062;49.792;9.946;2022-10-31T07:46:23;8.47;;;5.97;;
13975;SDS011;7062;49.792;9.946;2022-10-31T07:48:48;8.93;;;7.30;;
13975;SDS011;7062;49.792;9.946;2022-10-31T07:51:14;8.53;;;6.90;;
13975;SDS011;7062;49.792;9.946;2022-10-31T07:53:40;8.03;;;7.23;;
13975;SDS011;7062;49.792;9.946;2022-10-31T07:56:05;9.73;;;6.87;;
13975;SDS011;7062;49.792;9.946;2022-10-31T07:58:31;7.63;;;6.73;;
13975;SDS011;7062;49.792;9.946;2022-10-31T08:00:57;10.33;;;7.10;;
13975;SDS011;7062;49.792;9.946;2022-10-31T08:03:22;9.10;;;6.27;;
13975;SDS011;7062;49.792;9.946;2022-10-31T08:05:48;7.73;;;5.33;;
13975;SDS011;7062;49.792;9.946;2022-10-31T08:08:14;9.67;;;6.03;;
13975;SDS011;7062;49.792;9.946;2022-10-31T08:10:40;5.97;;;5.00;;
13975;SDS011;7062;49.792;9.946;2022-10-31T08:13:07;6.60;;;5.03;;
13975;SDS011;7062;49.792;9.946;2022-10-31T08:15:35;7.37;;;6.07;;
13975;SDS011;7062;49.792;9.946;2022-10-31T08:18:04;6.57;;;5.80;;
13975;SDS011;7062;49.792;9.946;2022-10-31T08:20:30;6.80;;;6.07;;
13975;SDS011;7062;49.792;9.946;2022-10-31T08:22:59;10.93;;;5.90;;
13975;SDS011;7062;49.792;9.946;2022-10-31T08:25:26;6.93;;;6.23;;
13975;SDS011;7062;49.792;9.946;2022-10-31T08:27:53;6.97;;;6.30;;
13975;SDS011;7062;49.792;9.946;2022-10-31T08:30:20;8.13;;;6.13;;
13975;SDS011;7062;49.792;9.946;2022-10-31T08:32:56;11.00;;;7.07;;
13975;SDS011;7062;49.792;9.946;2022-10-31T08:35:29;9.57;;;6.77;;
13975;SDS011;7062;49.792;9.946;2022-10-31T08:37:55;10.57;;;7.00;;
13975;SDS011;7062;49.792;9.946;2022-10-31T08:40:22;8.97;;;6.80;;
13975;SDS011;7062;49.792;9.946;2022-10-31T08:42:55;10.87;;;6.93;;
13975;SDS011;7062;49.792;9.946;2022-10-31T08:45:25;9.67;;;7.10;;
13975;SDS011;7062;49.792;9.946;2022-10-31T08:47:51;9.10;;;7.23;;
13975;SDS011;7062;49.792;9.946;2022-10-31T08:50:17;11.20;;;7.37;;
13975;SDS011;7062;49.792;9.946;2022-10-31T08:52:43;10.37;;;7.33;;
13975;SDS011;7062;49.792;9.946;2022-10-31T08:55:08;8.60;;;7.03;;
13975;SDS011;7062;49.792;9.946;2022-10-31T08:57:34;8.97;;;7.50;;
13975;SDS011;7062;49.792;9.946;2022-10-31T08:59:59;8.53;;;7.73;;
13975;SDS011;7062;49.792;9.946;2022-10-31T09:02:25;13.97;;;8.30;;
13975;SDS011;7062;49.792;9.946;2022-10-31T09:04:51;8.30;;;7.47;;
13975;SDS011;7062;49.792;9.946;2022-10-31T09:07:16;11.67;;;8.70;;
13975;SDS011;7062;49.792;9.946;2022-10-31T09:09:42;7.57;;;6.63;;
13975;SDS011;7062;49.792;9.946;2022-10-31T09:12:08;10.90;;;9.17;;
13975;SDS011;7062;49.792;9.946;2022-10-31T09:14:33;9.97;;;8.20;;
13975;SDS011;7062;49.792;9.946;2022-10-31T09:16:59;11.13;;;9.23;;
13975;SDS011;7062;49.792;9.946;2022-10-31T09:19:24;12.03;;;8.77;;
13975;SDS011;7062;49.792;9.946;2022-10-31T09:21:53;9.13;;;7.90;;
13975;SDS011;7062;49.792;9.946;2022-10-31T09:24:19;9.60;;;8.70;;
13975;SDS011;7062;49.792;9.946;2022-10-31T09:26:45;10.53;;;7.97;;
13975;SDS011;7062;49.792;9.946;2022-10-31T09:29:11;12.93;;;7.93;;
13975;SDS011;7062;49.792;9.946;2022-10-31T09:31:36;10.87;;;8.10;;
13975;SDS011;7062;49.792;9.946;2022-10-31T09:34:02;9.00;;;8.07;;
13975;SDS011;7062;49.792;9.946;2022-10-31T09:36:28;10.40;;;7.27;;
13975;SDS011;7062;49.792;9.946;2022-10-31T09:38:53;8.10;;;6.83;;
13975;SDS011;7062;49.792;9.946;2022-10-31T09:41:21;9.87;;;7.80;;
13975;SDS011;7062;49.792;9.946;2022-10-31T09:43:56;9.60;;;6.67;;
13975;SDS011;7062;49.792;9.946;2022-10-31T09:46:49;13.33;;;7.90;;
13975;SDS011;7062;49.792;9.946;2022-10-31T09:55:00;10.83;;;7.73;;
13975;SDS011;7062;49.792;9.946;2022-10-31T09:57:39;10.90;;;8.37;;
13975;SDS011;7062;49.792;9.946;2022-10-31T10:00:06;16.33;;;8.80;;
13975;SDS011;7062;49.792;9.946;2022-10-31T10:02:41;10.50;;;8.40;;
13975;SDS011;7062;49.792;9.946;2022-10-31T10:05:12;10.77;;;9.03;;
13975;SDS011;7062;49.792;9.946;2022-10-31T10:15:43;20.37;;;11.10;;
13975;SDS011;7062;49.792;9.946;2022-10-31T10:21:32;12.53;;;9.93;;
13975;SDS011;7062;49.792;9.946;2022-10-31T10:27:09;13.17;;;9.87;;
13975;SDS011;7062;49.792;9.946;2022-10-31T10:32:44;18.77;;;10.43;;
13975;SDS011;7062;49.792;9.946;2022-10-31T10:35:19;10.63;;;9.23;;
13975;SDS011;7062;49.792;9.946;2022-10-31T10:37:49;11.37;;;10.17;;
13975;SDS011;7062;49.792;9.946;2022-10-31T10:40:21;11.83;;;10.40;;
13975;SDS011;7062;49.792;9.946;2022-10-31T10:43:12;11.93;;;9.30;;
13975;SDS011;7062;49.792;9.946;2022-10-31T10:45:45;14.87;;;10.40;;
13975;SDS011;7062;49.792;9.946;2022-10-31T10:48:43;12.93;;;10.33;;
13975;SDS011;7062;49.792;9.946;2022-10-31T10:51:31;13.47;;;9.90;;
13975;SDS011;7062;49.792;9.946;2022-10-31T10:59:45;11.57;;;10.13;;
13975;SDS011;7062;49.792;9.946;2022-10-31T11:02:19;12.80;;;10.93;;
13975;SDS011;7062;49.792;9.946;2022-10-31T11:04:50;15.20;;;12.27;;
13975;SDS011;7062;49.792;9.946;2022-10-31T11:07:17;13.13;;;11.20;;
13975;SDS011;7062;49.792;9.946;2022-10-31T11:09:43;15.27;;;10.87;;
13975;SDS011;7062;49.792;9.946;2022-10-31T11:12:11;13.10;;;11.13;;
13975;SDS011;7062;49.792;9.946;2022-10-31T11:14:54;12.67;;;11.40;;
13975;SDS011;7062;49.792;9.946;2022-10-31T11:17:26;19.70;;;15.23;;
13975;SDS011;7062;49.792;9.946;2022-10-31T11:22:31;12.83;;;11.10;;
13975;SDS011;7062;49.792;9.946;2022-10-31T11:24:57;13.07;;;11.77;;
13975;SDS011;7062;49.792;9.946;2022-10-31T11:27:23;14.30;;;11.27;;
13975;SDS011;7062;49.792;9.946;2022-10-31T11:29:50;13.10;;;11.90;;
13975;SDS011;7062;49.792;9.946;2022-10-31T11:32:23;14.13;;;12.87;;
13975;SDS011;7062;49.792;9.946;2022-10-31T11:34:52;12.37;;;11.20;;
13975;SDS011;7062;49.792;9.946;2022-10-31T11:37:23;13.10;;;11.80;;
13975;SDS011;7062;49.792;9.946;2022-10-31T11:39:53;12.93;;;11.73;;
13975;SDS011;7062;49.792;9.946;2022-10-31T11:42:25;13.37;;;12.07;;
13975;SDS011;7062;49.792;9.946;2022-10-31T11:44:52;13.17;;;11.93;;
13975;SDS011;7062;49.792;9.946;2022-10-31T11:47:24;13.27;;;11.97;;
13975;SDS011;7062;49.792;9.946;2022-10-31T11:49:53;13.07;;;11.80;;
13975;SDS011;7062;49.792;9.946;2022-10-31T11:52:21;15.40;;;13.03;;
13975;SDS011;7062;49.792;9.946;2022-10-31T11:54:57;13.27;;;11.70;;
13975;SDS011;7062;49.792;9.946;2022-10-31T11:57:45;14.47;;;12.63;;
13975;SDS011;7062;49.792;9.946;2022-10-31T12:00:31;14.53;;;13.23;;
13975;SDS011;7062;49.792;9.946;2022-10-31T12:03:27;14.67;;;13.17;;
13975;SDS011;7062;49.792;9.946;2022-10-31T12:06:23;14.87;;;13.47;;
13975;SDS011;7062;49.792;9.946;2022-10-31T12:08:54;13.50;;;12.30;;
13975;SDS011;7062;49.792;9.946;2022-10-31T12:19:41;14.70;;;13.20;;
13975;SDS011;7062;49.792;9.946;2022-10-31T12:36:36;16.83;;;14.07;;
13975;SDS011;7062;49.792;9.946;2022-10-31T12:56:58;16.67;;;15.00;;
13975;SDS011;7062;49.792;9.946;2022-10-31T13:12:37;18.27;;;13.43;;
13975;SDS011;7062;49.792;9.946;2022-10-31T13:15:05;16.07;;;14.23;;
13975;SDS011;7062;49.792;9.946;2022-10-31T13:17:38;14.97;;;13.47;;
13975;SDS011;7062;49.792;9.946;2022-10-31T13:20:19;14.13;;;12.83;;
13975;SDS011;7062;49.792;9.946;2022-10-31T13:25:54;14.50;;;13.20;;
13975;SDS011;7062;49.792;9.946;2022-10-31T13:31:08;15.97;;;14.47;;
13975;SDS011;7062;49.792;9.946;2022-10-31T13:33:48;15.10;;;13.70;;
13975;SDS011;7062;49.792;9.946;2022-10-31T13:36:25;15.23;;;13.73;;
13975;SDS011;7062;49.792;9.946;2022-10-31T13:38:59;16.37;;;14.67;;
13975;SDS011;7062;49.792;9.946;2022-10-31T13:46:50;15.50;;;14.10;;
13975;SDS011;7062;49.792;9.946;2022-10-31T13:51:48;16.23;;;14.57;;
13975;SDS011;7062;49.792;9.946;2022-10-31T13:54:30;16.73;;;14.60;;
13975;SDS011;7062;49.792;9.946;2022-10-31T13:56:58;16.47;;;14.87;;
13975;SDS011;7062;49.792;9.946;2022-10-31T13:59:28;16.10;;;14.60;;
13975;SDS011;7062;49.792;9.946;2022-10-31T14:02:00;16.87;;;15.13;;
13975;SDS011;7062;49.792;9.946;2022-10-31T14:04:38;16.33;;;14.73;;
13975;SDS011;7062;49.792;9.946;2022-10-31T14:07:12;18.80;;;17.10;;
13975;SDS011;7062;49.792;9.946;2022-10-31T14:12:22;18.93;;;14.90;;
13975;SDS011;7062;49.792;9.946;2022-10-31T14:15:02;15.27;;;13.70;;
13975;SDS011;7062;49.792;9.946;2022-10-31T14:17:29;16.93;;;15.23;;
13975;SDS011;7062;49.792;9.946;2022-10-31T14:22:37;17.23;;;15.63;;
13975;SDS011;7062;49.792;9.946;2022-10-31T14:27:52;16.50;;;14.90;;
13975;SDS011;7062;49.792;9.946;2022-10-31T14:30:19;15.60;;;14.20;;
13975;SDS011;7062;49.792;9.946;2022-10-31T14:33:30;16.27;;;14.57;;
13975;SDS011;7062;49.792;9.946;2022-10-31T14:35:49;16.90;;;15.13;;
13975;SDS011;7062;49.792;9.946;2022-10-31T14:38:32;15.80;;;14.23;;
13975;SDS011;7062;49.792;9.946;2022-10-31T14:41:21;17.10;;;15.50;;
13975;SDS011;7062;49.792;9.946;2022-10-31T14:44:23;15.37;;;14.00;;
13975;SDS011;7062;49.792;9.946;2022-10-31T14:47:11;17.20;;;15.67;;
13975;SDS011;7062;49.792;9.946;2022-10-31T14:52:26;18.20;;;15.90;;
13975;SDS011;7062;49.792;9.946;2022-10-31T14:54:53;21.97;;;16.60;;
13975;SDS011;7062;49.792;9.946;2022-10-31T14:57:22;20.13;;;17.43;;
13975;SDS011;7062;49.792;9.946;2022-10-31T14:59:57;20.37;;;17.33;;
13975;SDS011;7062;49.792;9.946;2022-10-31T15:02:34;20.80;;;17.63;;
13975;SDS011;7062;49.792;9.946;2022-10-31T15:05:12;19.27;;;17.27;;
13975;SDS011;7062;49.792;9.946;2022-10-31T15:07:50;19.27;;;16.53;;
13975;SDS011;7062;49.792;9.946;2022-10-31T15:12:50;22.37;;;19.20;;
13975;SDS011;7062;49.792;9.946;2022-10-31T15:15:18;22.17;;;17.93;;
13975;SDS011;7062;49.792;9.946;2022-10-31T15:17:46;26.47;;;19.00;;
13975;SDS011;7062;49.792;9.946;2022-10-31T15:20:28;20.53;;;18.13;;
13975;SDS011;7062;49.792;9.946;2022-10-31T15:22:55;21.93;;;18.57;;
13975;SDS011;7062;49.792;9.946;2022-10-31T15:25:23;22.10;;;19.80;;
13975;SDS011;7062;49.792;9.946;2022-10-31T15:27:51;25.03;;;19.43;;
13975;SDS011;7062;49.792;9.946;2022-10-31T15:32:47;19.90;;;17.90;;
13975;SDS011;7062;49.792;9.946;2022-10-31T15:35:22;23.10;;;18.93;;
13975;SDS011;7062;49.792;9.946;2022-10-31T15:37:51;21.03;;;18.80;;
13975;SDS011;7062;49.792;9.946;2022-10-31T15:40:17;21.50;;;17.63;;
13975;SDS011;7062;49.792;9.946;2022-10-31T15:42:50;21.63;;;19.40;;
13975;SDS011;7062;49.792;9.946;2022-10-31T15:45:18;20.20;;;17.87;;
13975;SDS011;7062;49.792;9.946;2022-10-31T15:47:52;21.77;;;19.57;;
13975;SDS011;7062;49.792;9.946;2022-10-31T15:53:02;20.87;;;18.70;;
13975;SDS011;7062;49.792;9.946;2022-10-31T15:55:29;21.73;;;19.47;;
13975;SDS011;7062;49.792;9.946;2022-10-31T15:58:03;26.13;;;21.53;;
13975;SDS011;7062;49.792;9.946;2022-10-31T16:00:36;23.23;;;20.73;;
13975;SDS011;7062;49.792;9.946;2022-10-31T16:05:39;21.87;;;19.53;;
13975;SDS011;7062;49.792;9.946;2022-10-31T16:08:24;23.13;;;20.57;;
13975;SDS011;7062;49.792;9.946;2022-10-31T16:10:53;24.40;;;21.03;;
13975;SDS011;7062;49.792;9.946;2022-10-31T16:13:28;23.27;;;20.67;;
13975;SDS011;7062;49.792;9.946;2022-10-31T16:15:57;25.43;;;22.77;;
13975;SDS011;7062;49.792;9.946;2022-10-31T16:18:28;25.83;;;20.90;;
13975;SDS011;7062;49.792;9.946;2022-10-31T16:20:59;25.50;;;21.20;;
13975;SDS011;7062;49.792;9.946;2022-10-31T16:23:25;27.77;;;22.23;;
13975;SDS011;7062;49.792;9.946;2022-10-31T16:25:52;24.70;;;21.60;;
13975;SDS011;7062;49.792;9.946;2022-10-31T16:28:22;26.27;;;23.47;;
13975;SDS011;7062;49.792;9.946;2022-10-31T16:30:51;30.87;;;25.43;;
13975;SDS011;7062;49.792;9.946;2022-10-31T16:33:39;28.27;;;24.43;;
13975;SDS011;7062;49.792;9.946;2022-10-31T16:38:55;43.67;;;25.63;;
13975;SDS011;7062;49.792;9.946;2022-10-31T16:41:21;36.20;;;23.77;;
13975;SDS011;7062;49.792;9.946;2022-10-31T16:43:48;42.17;;;24.10;;
13975;SDS011;7062;49.792;9.946;2022-10-31T16:46:14;40.00;;;24.10;;
13975;SDS011;7062;49.792;9.946;2022-10-31T16:48:47;34.80;;;26.03;;
13975;SDS011;7062;49.792;9.946;2022-10-31T16:51:12;32.00;;;25.20;;
13975;SDS011;7062;49.792;9.946;2022-10-31T16:53:38;31.27;;;25.00;;
13975;SDS011;7062;49.792;9.946;2022-10-31T16:56:04;34.30;;;24.50;;
13975;SDS011;7062;49.792;9.946;2022-10-31T16:58:34;40.23;;;28.27;;
13975;SDS011;7062;49.792;9.946;2022-10-31T17:01:00;36.37;;;26.80;;
13975;SDS011;7062;49.792;9.946;2022-10-31T17:03:28;31.33;;;23.40;;
13975;SDS011;7062;49.792;9.946;2022-10-31T17:05:55;31.03;;;25.10;;
13975;SDS011;7062;49.792;9.946;2022-10-31T17:08:21;34.17;;;24.13;;
13975;SDS011;7062;49.792;9.946;2022-10-31T17:10:50;26.60;;;23.23;;
13975;SDS011;7062;49.792;9.946;2022-10-31T17:13:18;28.83;;;23.83;;
13975;SDS011;7062;49.792;9.946;2022-10-31T17:15:46;32.27;;;23.43;;
13975;SDS011;7062;49.792;9.946;2022-10-31T17:18:14;25.00;;;21.77;;
13975;SDS011;7062;49.792;9.946;2022-10-31T17:20:41;28.90;;;24.17;;
13975;SDS011;7062;49.792;9.946;2022-10-31T17:23:11;31.27;;;22.80;;
13975;SDS011;7062;49.792;9.946;2022-10-31T17:25:38;27.43;;;23.53;;
13975;SDS011;7062;49.792;9.946;2022-10-31T17:28:04;31.50;;;23.43;;
13975;SDS011;7062;49.792;9.946;2022-10-31T17:30:30;28.27;;;24.13;;
13975;SDS011;7062;49.792;9.946;2022-10-31T17:32:56;29.27;;;22.97;;